Terminal Aerodrome Forecast
Issued by NWS

Current Version | Previous Version | Text Only | Print | Product List | Glossary On
Versions: 1 2 3 4 5 6 7 8 9 10 11 12 13
959
FTUS41 KBGM 251126
TAFRME
TAF
KRME 251126Z 2512/2612 11008KT P6SM -RA OVC025
      TEMPO 2513/2517 4SM -SHRA OVC015
     FM251700 10007KT 3SM -RA BR OVC010
     FM252200 VRB04KT 2SM -SHRA BR OVC009
     FM260600 28006KT 5SM -SHRA BR OVC007=

USA.gov is the U.S. government's official web portal to all federal, state and local government web resources and services.